sensor_id;sensor_type;location;lat;lon;timestamp;P1;durP1;ratioP1;P2;durP2;ratioP2
58669;SDS011;44439;47.924;10.198;2022-07-23T00:00:39;12.02;;;7.00;;
58669;SDS011;44439;47.924;10.198;2022-07-23T00:03:25;8.43;;;5.90;;
58669;SDS011;44439;47.924;10.198;2022-07-23T00:06:11;12.20;;;7.50;;
58669;SDS011;44439;47.924;10.198;2022-07-23T00:08:57;14.10;;;7.25;;
58669;SDS011;44439;47.924;10.198;2022-07-23T00:11:42;11.95;;;6.28;;
58669;SDS011;44439;47.924;10.198;2022-07-23T00:14:28;9.77;;;7.30;;
58669;SDS011;44439;47.924;10.198;2022-07-23T00:17:14;9.45;;;5.82;;
58669;SDS011;44439;47.924;10.198;2022-07-23T00:20:00;10.65;;;6.10;;
58669;SDS011;44439;47.924;10.198;2022-07-23T00:22:49;10.93;;;6.72;;
58669;SDS011;44439;47.924;10.198;2022-07-23T00:25:36;9.35;;;6.22;;
58669;SDS011;44439;47.924;10.198;2022-07-23T00:28:22;11.35;;;6.47;;
58669;SDS011;44439;47.924;10.198;2022-07-23T00:31:07;9.85;;;6.28;;
58669;SDS011;44439;47.924;10.198;2022-07-23T00:33:53;10.93;;;6.00;;
58669;SDS011;44439;47.924;10.198;2022-07-23T00:36:41;7.78;;;6.15;;
58669;SDS011;44439;47.924;10.198;2022-07-23T00:39:27;10.23;;;5.78;;
58669;SDS011;44439;47.924;10.198;2022-07-23T00:42:13;8.90;;;5.90;;
58669;SDS011;44439;47.924;10.198;2022-07-23T00:44:58;6.88;;;5.03;;
58669;SDS011;44439;47.924;10.198;2022-07-23T00:47:44;9.60;;;5.05;;
58669;SDS011;44439;47.924;10.198;2022-07-23T00:50:30;12.95;;;5.50;;
58669;SDS011;44439;47.924;10.198;2022-07-23T00:53:16;6.45;;;5.32;;
58669;SDS011;44439;47.924;10.198;2022-07-23T00:56:02;8.40;;;5.60;;
58669;SDS011;44439;47.924;10.198;2022-07-23T00:58:48;6.53;;;5.15;;
58669;SDS011;44439;47.924;10.198;2022-07-23T01:01:34;7.18;;;5.32;;
58669;SDS011;44439;47.924;10.198;2022-07-23T01:04:19;5.72;;;5.13;;
58669;SDS011;44439;47.924;10.198;2022-07-23T01:07:05;7.57;;;5.30;;
58669;SDS011;44439;47.924;10.198;2022-07-23T01:09:51;5.78;;;5.18;;
58669;SDS011;44439;47.924;10.198;2022-07-23T01:12:37;6.43;;;5.57;;
58669;SDS011;44439;47.924;10.198;2022-07-23T01:15:23;5.65;;;5.03;;
58669;SDS011;44439;47.924;10.198;2022-07-23T01:18:08;5.65;;;5.00;;
58669;SDS011;44439;47.924;10.198;2022-07-23T01:20:54;6.82;;;4.90;;
58669;SDS011;44439;47.924;10.198;2022-07-23T01:23:40;5.97;;;5.07;;
58669;SDS011;44439;47.924;10.198;2022-07-23T01:26:26;5.70;;;4.85;;
58669;SDS011;44439;47.924;10.198;2022-07-23T01:29:12;7.30;;;4.97;;
58669;SDS011;44439;47.924;10.198;2022-07-23T01:31:58;5.65;;;4.65;;
58669;SDS011;44439;47.924;10.198;2022-07-23T01:34:43;5.63;;;4.50;;
58669;SDS011;44439;47.924;10.198;2022-07-23T01:37:29;5.68;;;4.60;;
58669;SDS011;44439;47.924;10.198;2022-07-23T01:40:14;5.57;;;4.53;;
58669;SDS011;44439;47.924;10.198;2022-07-23T01:43:00;6.60;;;5.32;;
58669;SDS011;44439;47.924;10.198;2022-07-23T01:45:46;5.38;;;4.43;;
58669;SDS011;44439;47.924;10.198;2022-07-23T01:48:31;5.53;;;4.95;;
58669;SDS011;44439;47.924;10.198;2022-07-23T01:51:17;6.45;;;5.53;;
58669;SDS011;44439;47.924;10.198;2022-07-23T01:54:03;6.32;;;5.72;;
58669;SDS011;44439;47.924;10.198;2022-07-23T01:56:49;7.47;;;5.82;;
58669;SDS011;44439;47.924;10.198;2022-07-23T01:59:34;6.97;;;5.85;;
58669;SDS011;44439;47.924;10.198;2022-07-23T02:02:21;7.15;;;5.78;;
58669;SDS011;44439;47.924;10.198;2022-07-23T02:05:06;6.72;;;5.85;;
58669;SDS011;44439;47.924;10.198;2022-07-23T02:07:52;9.25;;;6.78;;
58669;SDS011;44439;47.924;10.198;2022-07-23T02:10:39;6.70;;;6.05;;
58669;SDS011;44439;47.924;10.198;2022-07-23T02:13:25;6.45;;;5.80;;
58669;SDS011;44439;47.924;10.198;2022-07-23T02:16:11;8.43;;;6.22;;
58669;SDS011;44439;47.924;10.198;2022-07-23T02:18:56;6.30;;;5.28;;
58669;SDS011;44439;47.924;10.198;2022-07-23T02:21:42;6.13;;;5.03;;
58669;SDS011;44439;47.924;10.198;2022-07-23T02:24:28;6.05;;;5.47;;
58669;SDS011;44439;47.924;10.198;2022-07-23T02:27:13;6.57;;;5.13;;
58669;SDS011;44439;47.924;10.198;2022-07-23T02:29:59;6.55;;;4.95;;
58669;SDS011;44439;47.924;10.198;2022-07-23T02:32:45;5.50;;;5.00;;
58669;SDS011;44439;47.924;10.198;2022-07-23T02:35:30;7.53;;;4.97;;
58669;SDS011;44439;47.924;10.198;2022-07-23T02:38:16;5.68;;;4.60;;
58669;SDS011;44439;47.924;10.198;2022-07-23T02:41:02;5.93;;;4.85;;
58669;SDS011;44439;47.924;10.198;2022-07-23T02:43:47;8.07;;;4.90;;
58669;SDS011;44439;47.924;10.198;2022-07-23T02:46:33;6.78;;;4.95;;
58669;SDS011;44439;47.924;10.198;2022-07-23T02:49:19;5.95;;;4.80;;
58669;SDS011;44439;47.924;10.198;2022-07-23T02:52:04;7.22;;;5.35;;
58669;SDS011;44439;47.924;10.198;2022-07-23T02:54:50;5.88;;;4.57;;
58669;SDS011;44439;47.924;10.198;2022-07-23T02:57:36;6.63;;;4.72;;
58669;SDS011;44439;47.924;10.198;2022-07-23T03:00:22;5.43;;;4.93;;
58669;SDS011;44439;47.924;10.198;2022-07-23T03:03:08;5.45;;;4.93;;
58669;SDS011;44439;47.924;10.198;2022-07-23T03:05:54;5.18;;;4.47;;
58669;SDS011;44439;47.924;10.198;2022-07-23T03:08:39;4.75;;;4.25;;
58669;SDS011;44439;47.924;10.198;2022-07-23T03:11:25;5.05;;;4.55;;
58669;SDS011;44439;47.924;10.198;2022-07-23T03:14:11;6.72;;;5.18;;
58669;SDS011;44439;47.924;10.198;2022-07-23T03:16:58;5.90;;;4.72;;
58669;SDS011;44439;47.924;10.198;2022-07-23T03:19:45;5.30;;;4.78;;
58669;SDS011;44439;47.924;10.198;2022-07-23T03:22:30;5.65;;;4.47;;
58669;SDS011;44439;47.924;10.198;2022-07-23T03:25:16;6.55;;;4.80;;
58669;SDS011;44439;47.924;10.198;2022-07-23T03:28:02;5.25;;;4.75;;
58669;SDS011;44439;47.924;10.198;2022-07-23T03:30:47;5.78;;;4.50;;
58669;SDS011;44439;47.924;10.198;2022-07-23T03:33:33;7.32;;;4.80;;
58669;SDS011;44439;47.924;10.198;2022-07-23T03:36:19;5.20;;;4.70;;
58669;SDS011;44439;47.924;10.198;2022-07-23T03:39:05;7.53;;;5.18;;
58669;SDS011;44439;47.924;10.198;2022-07-23T03:41:50;5.90;;;4.78;;
58669;SDS011;44439;47.924;10.198;2022-07-23T03:44:36;5.05;;;4.63;;
58669;SDS011;44439;47.924;10.198;2022-07-23T03:47:22;5.05;;;4.55;;
58669;SDS011;44439;47.924;10.198;2022-07-23T03:50:08;7.43;;;5.00;;
58669;SDS011;44439;47.924;10.198;2022-07-23T03:52:54;5.93;;;4.55;;
58669;SDS011;44439;47.924;10.198;2022-07-23T03:55:40;4.65;;;4.25;;
58669;SDS011;44439;47.924;10.198;2022-07-23T03:58:25;5.10;;;4.60;;
58669;SDS011;44439;47.924;10.198;2022-07-23T04:01:11;5.38;;;4.88;;
58669;SDS011;44439;47.924;10.198;2022-07-23T04:03:57;6.00;;;5.07;;
58669;SDS011;44439;47.924;10.198;2022-07-23T04:06:43;5.35;;;4.85;;
58669;SDS011;44439;47.924;10.198;2022-07-23T04:09:28;5.50;;;5.00;;
58669;SDS011;44439;47.924;10.198;2022-07-23T04:12:14;5.38;;;4.88;;
58669;SDS011;44439;47.924;10.198;2022-07-23T04:15:00;5.30;;;4.80;;
58669;SDS011;44439;47.924;10.198;2022-07-23T04:17:45;5.32;;;4.47;;
58669;SDS011;44439;47.924;10.198;2022-07-23T04:20:32;6.22;;;4.90;;
58669;SDS011;44439;47.924;10.198;2022-07-23T04:23:17;8.30;;;5.15;;
58669;SDS011;44439;47.924;10.198;2022-07-23T04:26:03;5.97;;;4.70;;
58669;SDS011;44439;47.924;10.198;2022-07-23T04:28:49;6.22;;;4.78;;
58669;SDS011;44439;47.924;10.198;2022-07-23T04:31:34;6.53;;;5.13;;
58669;SDS011;44439;47.924;10.198;2022-07-23T04:34:20;7.45;;;4.68;;
58669;SDS011;44439;47.924;10.198;2022-07-23T04:37:06;5.70;;;5.13;;
58669;SDS011;44439;47.924;10.198;2022-07-23T04:39:51;5.53;;;5.00;;
58669;SDS011;44439;47.924;10.198;2022-07-23T04:42:37;5.70;;;5.20;;
58669;SDS011;44439;47.924;10.198;2022-07-23T04:45:23;5.97;;;4.93;;
58669;SDS011;44439;47.924;10.198;2022-07-23T04:48:10;7.13;;;5.50;;
58669;SDS011;44439;47.924;10.198;2022-07-23T04:50:55;5.97;;;5.35;;
58669;SDS011;44439;47.924;10.198;2022-07-23T04:53:41;5.95;;;5.45;;
58669;SDS011;44439;47.924;10.198;2022-07-23T04:56:26;7.25;;;5.10;;
58669;SDS011;44439;47.924;10.198;2022-07-23T04:59:12;5.43;;;4.82;;
58669;SDS011;44439;47.924;10.198;2022-07-23T05:01:58;6.50;;;5.53;;
58669;SDS011;44439;47.924;10.198;2022-07-23T05:04:43;6.30;;;5.05;;
58669;SDS011;44439;47.924;10.198;2022-07-23T05:07:29;6.78;;;5.40;;
58669;SDS011;44439;47.924;10.198;2022-07-23T05:10:15;5.38;;;4.88;;
58669;SDS011;44439;47.924;10.198;2022-07-23T05:13:00;5.85;;;5.32;;
58669;SDS011;44439;47.924;10.198;2022-07-23T05:15:46;6.80;;;5.60;;
58669;SDS011;44439;47.924;10.198;2022-07-23T05:18:32;6.15;;;5.55;;
58669;SDS011;44439;47.924;10.198;2022-07-23T05:21:17;7.75;;;5.53;;
58669;SDS011;44439;47.924;10.198;2022-07-23T05:24:03;6.20;;;5.10;;
58669;SDS011;44439;47.924;10.198;2022-07-23T05:26:49;6.80;;;5.15;;
58669;SDS011;44439;47.924;10.198;2022-07-23T05:29:35;5.40;;;4.90;;
58669;SDS011;44439;47.924;10.198;2022-07-23T05:32:21;6.40;;;5.50;;
58669;SDS011;44439;47.924;10.198;2022-07-23T05:35:07;7.22;;;5.72;;
58669;SDS011;44439;47.924;10.198;2022-07-23T05:37:53;7.15;;;5.55;;
58669;SDS011;44439;47.924;10.198;2022-07-23T05:40:38;6.10;;;5.53;;
58669;SDS011;44439;47.924;10.198;2022-07-23T05:43:24;6.25;;;5.00;;
58669;SDS011;44439;47.924;10.198;2022-07-23T05:46:10;6.25;;;5.65;;
58669;SDS011;44439;47.924;10.198;2022-07-23T05:48:55;6.45;;;5.40;;
58669;SDS011;44439;47.924;10.198;2022-07-23T05:51:41;5.80;;;5.30;;
58669;SDS011;44439;47.924;10.198;2022-07-23T05:54:27;7.72;;;5.80;;
58669;SDS011;44439;47.924;10.198;2022-07-23T05:57:12;5.43;;;4.97;;
58669;SDS011;44439;47.924;10.198;2022-07-23T05:59:58;5.70;;;5.10;;
58669;SDS011;44439;47.924;10.198;2022-07-23T06:02:43;7.30;;;6.10;;
58669;SDS011;44439;47.924;10.198;2022-07-23T06:05:29;7.07;;;5.68;;
58669;SDS011;44439;47.924;10.198;2022-07-23T06:08:15;6.95;;;5.57;;
58669;SDS011;44439;47.924;10.198;2022-07-23T06:11:00;6.25;;;5.63;;
58669;SDS011;44439;47.924;10.198;2022-07-23T06:13:46;6.10;;;5.50;;
58669;SDS011;44439;47.924;10.198;2022-07-23T06:16:32;7.50;;;5.80;;
58669;SDS011;44439;47.924;10.198;2022-07-23T06:19:17;6.72;;;6.00;;
58669;SDS011;44439;47.924;10.198;2022-07-23T06:22:03;6.32;;;5.72;;
58669;SDS011;44439;47.924;10.198;2022-07-23T06:24:49;6.55;;;5.95;;
58669;SDS011;44439;47.924;10.198;2022-07-23T06:27:36;6.68;;;6.03;;
58669;SDS011;44439;47.924;10.198;2022-07-23T06:30:21;8.43;;;6.05;;
58669;SDS011;44439;47.924;10.198;2022-07-23T06:33:08;7.50;;;5.78;;
58669;SDS011;44439;47.924;10.198;2022-07-23T06:35:53;7.55;;;6.32;;
58669;SDS011;44439;47.924;10.198;2022-07-23T06:38:39;7.72;;;6.32;;
58669;SDS011;44439;47.924;10.198;2022-07-23T06:41:25;6.03;;;5.43;;
58669;SDS011;44439;47.924;10.198;2022-07-23T06:44:10;6.40;;;5.80;;
58669;SDS011;44439;47.924;10.198;2022-07-23T06:46:56;6.57;;;5.97;;
58669;SDS011;44439;47.924;10.198;2022-07-23T06:49:42;6.47;;;5.80;;
58669;SDS011;44439;47.924;10.198;2022-07-23T06:52:27;9.02;;;6.18;;
58669;SDS011;44439;47.924;10.198;2022-07-23T06:55:13;6.80;;;6.13;;
58669;SDS011;44439;47.924;10.198;2022-07-23T06:57:59;8.13;;;6.32;;
58669;SDS011;44439;47.924;10.198;2022-07-23T07:00:44;7.63;;;6.93;;
58669;SDS011;44439;47.924;10.198;2022-07-23T07:03:30;7.38;;;6.18;;
58669;SDS011;44439;47.924;10.198;2022-07-23T07:06:16;7.30;;;6.60;;
58669;SDS011;44439;47.924;10.198;2022-07-23T07:09:02;7.20;;;6.60;;
58669;SDS011;44439;47.924;10.198;2022-07-23T07:11:47;7.90;;;6.40;;
58669;SDS011;44439;47.924;10.198;2022-07-23T07:14:33;7.35;;;6.65;;
58669;SDS011;44439;47.924;10.198;2022-07-23T07:17:18;7.75;;;6.80;;
58669;SDS011;44439;47.924;10.198;2022-07-23T07:20:04;7.22;;;6.50;;
58669;SDS011;44439;47.924;10.198;2022-07-23T07:22:50;7.88;;;6.68;;
58669;SDS011;44439;47.924;10.198;2022-07-23T07:25:36;7.57;;;6.45;;
58669;SDS011;44439;47.924;10.198;2022-07-23T07:28:22;7.55;;;6.47;;
58669;SDS011;44439;47.924;10.198;2022-07-23T07:31:07;6.40;;;5.80;;
58669;SDS011;44439;47.924;10.198;2022-07-23T07:33:53;6.70;;;5.82;;
58669;SDS011;44439;47.924;10.198;2022-07-23T07:36:41;5.90;;;5.30;;
58669;SDS011;44439;47.924;10.198;2022-07-23T07:39:28;5.72;;;5.22;;
58669;SDS011;44439;47.924;10.198;2022-07-23T07:42:14;7.78;;;5.22;;
58669;SDS011;44439;47.924;10.198;2022-07-23T07:45:00;6.13;;;5.30;;
58669;SDS011;44439;47.924;10.198;2022-07-23T07:47:46;6.25;;;5.43;;
58669;SDS011;44439;47.924;10.198;2022-07-23T07:50:32;8.40;;;5.32;;
58669;SDS011;44439;47.924;10.198;2022-07-23T07:53:18;7.45;;;5.22;;
58669;SDS011;44439;47.924;10.198;2022-07-23T07:56:04;5.80;;;5.28;;
58669;SDS011;44439;47.924;10.198;2022-07-23T07:58:50;8.27;;;5.50;;
58669;SDS011;44439;47.924;10.198;2022-07-23T08:01:35;6.20;;;5.20;;
58669;SDS011;44439;47.924;10.198;2022-07-23T08:04:21;6.57;;;5.68;;
58669;SDS011;44439;47.924;10.198;2022-07-23T08:07:07;5.95;;;5.35;;
58669;SDS011;44439;47.924;10.198;2022-07-23T08:09:52;7.20;;;5.93;;
58669;SDS011;44439;47.924;10.198;2022-07-23T08:12:48;5.45;;;4.95;;
58669;SDS011;44439;47.924;10.198;2022-07-23T08:15:34;5.15;;;4.60;;
58669;SDS011;44439;47.924;10.198;2022-07-23T08:18:21;4.63;;;4.20;;
58669;SDS011;44439;47.924;10.198;2022-07-23T08:21:07;7.03;;;4.80;;
58669;SDS011;44439;47.924;10.198;2022-07-23T08:23:53;5.22;;;4.72;;
58669;SDS011;44439;47.924;10.198;2022-07-23T08:26:39;6.45;;;4.65;;
58669;SDS011;44439;47.924;10.198;2022-07-23T08:29:24;5.32;;;4.82;;
58669;SDS011;44439;47.924;10.198;2022-07-23T08:32:10;5.18;;;4.65;;
58669;SDS011;44439;47.924;10.198;2022-07-23T08:34:56;5.82;;;4.70;;
58669;SDS011;44439;47.924;10.198;2022-07-23T08:37:42;6.95;;;5.85;;
58669;SDS011;44439;47.924;10.198;2022-07-23T08:40:29;6.20;;;5.10;;
58669;SDS011;44439;47.924;10.198;2022-07-23T08:43:19;7.32;;;4.60;;
58669;SDS011;44439;47.924;10.198;2022-07-23T08:46:06;6.97;;;5.05;;
58669;SDS011;44439;47.924;10.198;2022-07-23T08:48:52;6.78;;;5.43;;
58669;SDS011;44439;47.924;10.198;2022-07-23T08:51:39;6.50;;;5.68;;
58669;SDS011;44439;47.924;10.198;2022-07-23T08:54:25;6.70;;;5.90;;
58669;SDS011;44439;47.924;10.198;2022-07-23T08:57:11;8.27;;;6.07;;
58669;SDS011;44439;47.924;10.198;2022-07-23T08:59:58;6.55;;;5.40;;
58669;SDS011;44439;47.924;10.198;2022-07-23T09:02:44;6.25;;;5.65;;
58669;SDS011;44439;47.924;10.198;2022-07-23T09:05:30;6.57;;;5.97;;
58669;SDS011;44439;47.924;10.198;2022-07-23T09:08:17;6.65;;;5.95;;
58669;SDS011;44439;47.924;10.198;2022-07-23T09:11:05;7.78;;;5.80;;
58669;SDS011;44439;47.924;10.198;2022-07-23T09:13:55;6.35;;;5.70;;
58669;SDS011;44439;47.924;10.198;2022-07-23T09:16:43;7.03;;;5.85;;
58669;SDS011;44439;47.924;10.198;2022-07-23T09:19:29;6.78;;;5.88;;
58669;SDS011;44439;47.924;10.198;2022-07-23T09:22:19;6.35;;;5.65;;
58669;SDS011;44439;47.924;10.198;2022-07-23T09:25:10;8.73;;;6.00;;
58669;SDS011;44439;47.924;10.198;2022-07-23T09:27:59;7.00;;;5.82;;
58669;SDS011;44439;47.924;10.198;2022-07-23T09:30:50;8.82;;;6.43;;
58669;SDS011;44439;47.924;10.198;2022-07-23T09:33:36;6.47;;;5.88;;
58669;SDS011;44439;47.924;10.198;2022-07-23T09:36:28;6.35;;;5.72;;
58669;SDS011;44439;47.924;10.198;2022-07-23T09:39:15;6.70;;;5.68;;
58669;SDS011;44439;47.924;10.198;2022-07-23T09:45:10;7.15;;;6.10;;
58669;SDS011;44439;47.924;10.198;2022-07-23T09:48:09;6.22;;;5.63;;
58669;SDS011;44439;47.924;10.198;2022-07-23T09:51:05;7.70;;;5.80;;
58669;SDS011;44439;47.924;10.198;2022-07-23T09:53:54;6.90;;;6.20;;
58669;SDS011;44439;47.924;10.198;2022-07-23T09:56:46;6.30;;;5.70;;
58669;SDS011;44439;47.924;10.198;2022-07-23T09:59:36;6.65;;;5.65;;
58669;SDS011;44439;47.924;10.198;2022-07-23T10:02:36;7.18;;;5.47;;
58669;SDS011;44439;47.924;10.198;2022-07-23T10:05:22;7.47;;;5.88;;
58669;SDS011;44439;47.924;10.198;2022-07-23T10:08:11;7.88;;;5.88;;
58669;SDS011;44439;47.924;10.198;2022-07-23T10:10:57;6.78;;;5.88;;
58669;SDS011;44439;47.924;10.198;2022-07-23T10:13:56;7.18;;;6.47;;
58669;SDS011;44439;47.924;10.198;2022-07-23T10:17:09;6.40;;;5.80;;
58669;SDS011;44439;47.924;10.198;2022-07-23T10:20:02;6.20;;;5.60;;
58669;SDS011;44439;47.924;10.198;2022-07-23T10:26:26;6.90;;;5.85;;
58669;SDS011;44439;47.924;10.198;2022-07-23T10:29:32;7.90;;;5.95;;
58669;SDS011;44439;47.924;10.198;2022-07-23T10:32:44;6.43;;;5.82;;
58669;SDS011;44439;47.924;10.198;2022-07-23T10:38:51;7.15;;;6.35;;
58669;SDS011;44439;47.924;10.198;2022-07-23T10:41:39;7.00;;;6.30;;
58669;SDS011;44439;47.924;10.198;2022-07-23T10:44:32;7.65;;;6.53;;
58669;SDS011;44439;47.924;10.198;2022-07-23T10:47:28;8.52;;;6.50;;
58669;SDS011;44439;47.924;10.198;2022-07-23T10:53:20;6.78;;;5.85;;
58669;SDS011;44439;47.924;10.198;2022-07-23T10:56:06;8.32;;;6.35;;
58669;SDS011;44439;47.924;10.198;2022-07-23T10:58:51;8.07;;;6.35;;
58669;SDS011;44439;47.924;10.198;2022-07-23T11:01:38;7.00;;;6.20;;
58669;SDS011;44439;47.924;10.198;2022-07-23T11:07:37;6.72;;;6.10;;
58669;SDS011;44439;47.924;10.198;2022-07-23T11:13:48;6.82;;;5.43;;
58669;SDS011;44439;47.924;10.198;2022-07-23T11:16:41;7.47;;;5.95;;
58669;SDS011;44439;47.924;10.198;2022-07-23T11:19:31;6.07;;;5.45;;
58669;SDS011;44439;47.924;10.198;2022-07-23T11:23:01;6.78;;;5.38;;
58669;SDS011;44439;47.924;10.198;2022-07-23T11:25:49;7.97;;;5.85;;
58669;SDS011;44439;47.924;10.198;2022-07-23T11:28:36;7.20;;;5.18;;
58669;SDS011;44439;47.924;10.198;2022-07-23T11:31:21;6.10;;;5.50;;
58669;SDS011;44439;47.924;10.198;2022-07-23T11:40:13;6.00;;;5.35;;
58669;SDS011;44439;47.924;10.198;2022-07-23T11:43:06;7.18;;;5.35;;
58669;SDS011;44439;47.924;10.198;2022-07-23T11:45:56;6.25;;;4.95;;
58669;SDS011;44439;47.924;10.198;2022-07-23T11:48:44;5.18;;;4.68;;
58669;SDS011;44439;47.924;10.198;2022-07-23T11:51:29;5.50;;;4.93;;
58669;SDS011;44439;47.924;10.198;2022-07-23T11:54:17;5.03;;;4.53;;
58669;SDS011;44439;47.924;10.198;2022-07-23T11:57:02;5.18;;;4.68;;
58669;SDS011;44439;47.924;10.198;2022-07-23T11:59:50;5.60;;;5.10;;
58669;SDS011;44439;47.924;10.198;2022-07-23T12:02:45;6.80;;;4.72;;
58669;SDS011;44439;47.924;10.198;2022-07-23T12:05:33;6.30;;;5.00;;
58669;SDS011;44439;47.924;10.198;2022-07-23T12:08:20;5.38;;;4.88;;
58669;SDS011;44439;47.924;10.198;2022-07-23T12:11:06;6.38;;;5.10;;
58669;SDS011;44439;47.924;10.198;2022-07-23T12:13:57;6.30;;;5.20;;
58669;SDS011;44439;47.924;10.198;2022-07-23T12:16:43;6.45;;;5.78;;
58669;SDS011;44439;47.924;10.198;2022-07-23T12:19:29;6.45;;;5.63;;
58669;SDS011;44439;47.924;10.198;2022-07-23T12:22:15;6.00;;;5.10;;
58669;SDS011;44439;47.924;10.198;2022-07-23T12:25:02;5.85;;;5.03;;
58669;SDS011;44439;47.924;10.198;2022-07-23T12:30:46;5.38;;;4.80;;
58669;SDS011;44439;47.924;10.198;2022-07-23T12:33:37;5.97;;;5.38;;
58669;SDS011;44439;47.924;10.198;2022-07-23T12:36:24;6.03;;;5.43;;
58669;SDS011;44439;47.924;10.198;2022-07-23T12:39:31;5.53;;;4.88;;
58669;SDS011;44439;47.924;10.198;2022-07-23T12:42:17;6.55;;;5.32;;
58669;SDS011;44439;47.924;10.198;2022-07-23T12:45:08;7.63;;;5.70;;
58669;SDS011;44439;47.924;10.198;2022-07-23T12:48:00;7.15;;;5.45;;
58669;SDS011;44439;47.924;10.198;2022-07-23T12:50:58;8.23;;;5.45;;
58669;SDS011;44439;47.924;10.198;2022-07-23T12:56:38;6.40;;;4.97;;
58669;SDS011;44439;47.924;10.198;2022-07-23T12:59:25;6.25;;;5.57;;
58669;SDS011;44439;47.924;10.198;2022-07-23T13:02:16;6.53;;;4.72;;
58669;SDS011;44439;47.924;10.198;2022-07-23T13:05:02;7.00;;;5.00;;
58669;SDS011;44439;47.924;10.198;2022-07-23T13:07:48;6.55;;;5.40;;
58669;SDS011;44439;47.924;10.198;2022-07-23T13:10:33;5.82;;;5.22;;
58669;SDS011;44439;47.924;10.198;2022-07-23T13:13:20;6.10;;;5.50;;
58669;SDS011;44439;47.924;10.198;2022-07-23T13:16:07;7.00;;;5.43;;
58669;SDS011;44439;47.924;10.198;2022-07-23T13:18:56;7.53;;;4.90;;
58669;SDS011;44439;47.924;10.198;2022-07-23T13:21:44;5.90;;;5.28;;
58669;SDS011;44439;47.924;10.198;2022-07-23T13:24:29;6.32;;;5.72;;
58669;SDS011;44439;47.924;10.198;2022-07-23T13:27:18;6.80;;;5.50;;
58669;SDS011;44439;47.924;10.198;2022-07-23T13:30:05;5.82;;;5.32;;
58669;SDS011;44439;47.924;10.198;2022-07-23T13:32:51;8.18;;;5.78;;
58669;SDS011;44439;47.924;10.198;2022-07-23T13:35:37;6.30;;;5.70;;
58669;SDS011;44439;47.924;10.198;2022-07-23T13:38:26;6.18;;;5.57;;
58669;SDS011;44439;47.924;10.198;2022-07-23T13:41:17;6.82;;;5.95;;
58669;SDS011;44439;47.924;10.198;2022-07-23T13:44:04;6.90;;;6.28;;
58669;SDS011;44439;47.924;10.198;2022-07-23T13:49:57;7.07;;;6.38;;
58669;SDS011;44439;47.924;10.198;2022-07-23T13:52:46;6.88;;;6.20;;
58669;SDS011;44439;47.924;10.198;2022-07-23T13:55:33;6.90;;;6.25;;
58669;SDS011;44439;47.924;10.198;2022-07-23T13:58:25;7.07;;;6.38;;
58669;SDS011;44439;47.924;10.198;2022-07-23T14:01:28;7.78;;;6.95;;
58669;SDS011;44439;47.924;10.198;2022-07-23T14:08:08;7.97;;;7.18;;
58669;SDS011;44439;47.924;10.198;2022-07-23T14:10:54;8.10;;;6.95;;
58669;SDS011;44439;47.924;10.198;2022-07-23T14:17:19;7.88;;;7.05;;
58669;SDS011;44439;47.924;10.198;2022-07-23T14:20:15;7.93;;;7.18;;
58669;SDS011;44439;47.924;10.198;2022-07-23T14:23:00;8.52;;;7.15;;
58669;SDS011;44439;47.924;10.198;2022-07-23T14:25:46;9.20;;;7.68;;
58669;SDS011;44439;47.924;10.198;2022-07-23T14:28:32;8.40;;;7.03;;
58669;SDS011;44439;47.924;10.198;2022-07-23T14:31:24;8.95;;;8.05;;
58669;SDS011;44439;47.924;10.198;2022-07-23T14:34:15;8.65;;;7.80;;
58669;SDS011;44439;47.924;10.198;2022-07-23T14:37:01;8.43;;;7.60;;
58669;SDS011;44439;47.924;10.198;2022-07-23T14:39:47;10.57;;;7.78;;
58669;SDS011;44439;47.924;10.198;2022-07-23T14:42:33;8.73;;;7.85;;
58669;SDS011;44439;47.924;10.198;2022-07-23T14:45:23;9.95;;;7.90;;
58669;SDS011;44439;47.924;10.198;2022-07-23T14:48:10;10.00;;;7.53;;
58669;SDS011;44439;47.924;10.198;2022-07-23T14:51:13;8.20;;;7.40;;
58669;SDS011;44439;47.924;10.198;2022-07-23T14:54:09;9.20;;;7.95;;
58669;SDS011;44439;47.924;10.198;2022-07-23T14:57:05;8.38;;;7.43;;
58669;SDS011;44439;47.924;10.198;2022-07-23T14:59:54;8.38;;;7.50;;
58669;SDS011;44439;47.924;10.198;2022-07-23T15:02:40;9.60;;;8.75;;
58669;SDS011;44439;47.924;10.198;2022-07-23T15:05:35;7.88;;;7.03;;
58669;SDS011;44439;47.924;10.198;2022-07-23T15:08:30;8.13;;;7.35;;
58669;SDS011;44439;47.924;10.198;2022-07-23T15:11:17;9.07;;;8.18;;
58669;SDS011;44439;47.924;10.198;2022-07-23T15:17:09;9.48;;;8.30;;
58669;SDS011;44439;47.924;10.198;2022-07-23T15:20:03;9.90;;;8.90;;
58669;SDS011;44439;47.924;10.198;2022-07-23T15:22:49;9.80;;;8.75;;
58669;SDS011;44439;47.924;10.198;2022-07-23T15:25:35;11.15;;;7.97;;
58669;SDS011;44439;47.924;10.198;2022-07-23T15:28:21;10.00;;;9.10;;
58669;SDS011;44439;47.924;10.198;2022-07-23T15:31:08;9.88;;;8.88;;
58669;SDS011;44439;47.924;10.198;2022-07-23T15:33:56;10.10;;;9.10;;
58669;SDS011;44439;47.924;10.198;2022-07-23T15:36:42;9.55;;;8.48;;
58669;SDS011;44439;47.924;10.198;2022-07-23T15:39:30;10.23;;;9.18;;
58669;SDS011;44439;47.924;10.198;2022-07-23T15:42:25;9.35;;;8.38;;
58669;SDS011;44439;47.924;10.198;2022-07-23T15:45:11;9.93;;;9.00;;
58669;SDS011;44439;47.924;10.198;2022-07-23T15:48:00;10.18;;;9.27;;
58669;SDS011;44439;47.924;10.198;2022-07-23T15:50:54;10.48;;;9.23;;
58669;SDS011;44439;47.924;10.198;2022-07-23T15:53:40;10.30;;;9.27;;
58669;SDS011;44439;47.924;10.198;2022-07-23T15:59:39;10.73;;;8.52;;
58669;SDS011;44439;47.924;10.198;2022-07-23T16:02:33;9.32;;;8.40;;
58669;SDS011;44439;47.924;10.198;2022-07-23T16:05:23;9.02;;;8.13;;
58669;SDS011;44439;47.924;10.198;2022-07-23T16:08:24;10.63;;;9.63;;
58669;SDS011;44439;47.924;10.198;2022-07-23T16:17:58;10.65;;;9.55;;
58669;SDS011;44439;47.924;10.198;2022-07-23T16:20:45;9.90;;;8.60;;
58669;SDS011;44439;47.924;10.198;2022-07-23T16:23:39;9.45;;;8.55;;
58669;SDS011;44439;47.924;10.198;2022-07-23T16:33:17;9.98;;;8.82;;
58669;SDS011;44439;47.924;10.198;2022-07-23T16:36:04;9.13;;;8.25;;
58669;SDS011;44439;47.924;10.198;2022-07-23T16:42:18;11.13;;;8.60;;
58669;SDS011;44439;47.924;10.198;2022-07-23T16:45:49;9.02;;;8.13;;
58669;SDS011;44439;47.924;10.198;2022-07-23T16:59:58;9.05;;;8.05;;
58669;SDS011;44439;47.924;10.198;2022-07-23T17:06:38;8.73;;;7.80;;
58669;SDS011;44439;47.924;10.198;2022-07-23T17:13:25;9.40;;;8.48;;
58669;SDS011;44439;47.924;10.198;2022-07-23T17:16:15;8.63;;;7.70;;
58669;SDS011;44439;47.924;10.198;2022-07-23T17:26:53;9.48;;;7.95;;
58669;SDS011;44439;47.924;10.198;2022-07-23T17:47:32;12.45;;;11.15;;
58669;SDS011;44439;47.924;10.198;2022-07-23T18:01:40;12.77;;;11.45;;
58669;SDS011;44439;47.924;10.198;2022-07-23T18:04:30;10.63;;;9.48;;
58669;SDS011;44439;47.924;10.198;2022-07-23T18:11:01;7.50;;;6.80;;
58669;SDS011;44439;47.924;10.198;2022-07-23T18:13:47;7.13;;;5.80;;
58669;SDS011;44439;47.924;10.198;2022-07-23T18:16:34;6.57;;;5.60;;
58669;SDS011;44439;47.924;10.198;2022-07-23T18:19:20;5.93;;;5.43;;
58669;SDS011;44439;47.924;10.198;2022-07-23T18:22:06;5.70;;;5.13;;
58669;SDS011;44439;47.924;10.198;2022-07-23T18:24:51;5.50;;;5.00;;
58669;SDS011;44439;47.924;10.198;2022-07-23T18:27:37;8.15;;;5.18;;
58669;SDS011;44439;47.924;10.198;2022-07-23T18:30:23;5.28;;;3.88;;
58669;SDS011;44439;47.924;10.198;2022-07-23T18:33:08;4.95;;;4.47;;
58669;SDS011;44439;47.924;10.198;2022-07-23T18:35:54;6.32;;;4.63;;
58669;SDS011;44439;47.924;10.198;2022-07-23T18:38:40;5.70;;;4.50;;